sensor_id;sensor_type;location;lat;lon;timestamp;temperature;humidity
2124;DHT22;1068;52.460;13.528;2022-09-03T00:00:53;14.20;99.90
2124;DHT22;1068;52.460;13.528;2022-09-03T00:03:25;14.10;99.90
2124;DHT22;1068;52.460;13.528;2022-09-03T00:06:06;13.80;99.90
2124;DHT22;1068;52.460;13.528;2022-09-03T00:08:38;13.60;99.90
2124;DHT22;1068;52.460;13.528;2022-09-03T00:11:11;13.80;99.90
2124;DHT22;1068;52.460;13.528;2022-09-03T00:13:43;13.70;99.90
2124;DHT22;1068;52.460;13.528;2022-09-03T00:16:13;13.80;99.90
2124;DHT22;1068;52.460;13.528;2022-09-03T00:18:46;13.80;99.90
2124;DHT22;1068;52.460;13.528;2022-09-03T00:21:16;13.80;99.90
2124;DHT22;1068;52.460;13.528;2022-09-03T00:23:45;13.80;99.90
2124;DHT22;1068;52.460;13.528;2022-09-03T00:26:21;13.80;99.90
2124;DHT22;1068;52.460;13.528;2022-09-03T00:28:55;13.70;99.90
2124;DHT22;1068;52.460;13.528;2022-09-03T00:31:27;13.70;99.90
2124;DHT22;1068;52.460;13.528;2022-09-03T00:33:59;13.80;99.90
2124;DHT22;1068;52.460;13.528;2022-09-03T00:36:33;13.70;99.90
2124;DHT22;1068;52.460;13.528;2022-09-03T00:39:00;13.80;99.90
2124;DHT22;1068;52.460;13.528;2022-09-03T00:41:32;13.70;99.90
2124;DHT22;1068;52.460;13.528;2022-09-03T00:44:09;13.70;99.90
2124;DHT22;1068;52.460;13.528;2022-09-03T00:46:44;13.70;99.90
2124;DHT22;1068;52.460;13.528;2022-09-03T00:49:31;13.60;99.90
2124;DHT22;1068;52.460;13.528;2022-09-03T00:52:06;13.40;99.90
2124;DHT22;1068;52.460;13.528;2022-09-03T00:54:40;13.40;99.90
2124;DHT22;1068;52.460;13.528;2022-09-03T00:57:18;13.30;99.90
2124;DHT22;1068;52.460;13.528;2022-09-03T00:59:54;13.30;99.90
2124;DHT22;1068;52.460;13.528;2022-09-03T01:02:28;13.30;99.90
2124;DHT22;1068;52.460;13.528;2022-09-03T01:05:08;13.20;99.90
2124;DHT22;1068;52.460;13.528;2022-09-03T01:07:40;13.20;99.90
2124;DHT22;1068;52.460;13.528;2022-09-03T01:10:18;13.20;99.90
2124;DHT22;1068;52.460;13.528;2022-09-03T01:12:55;13.10;99.90
2124;DHT22;1068;52.460;13.528;2022-09-03T01:15:29;13.20;99.90
2124;DHT22;1068;52.460;13.528;2022-09-03T01:18:06;13.20;99.90
2124;DHT22;1068;52.460;13.528;2022-09-03T01:20:46;13.10;99.90
2124;DHT22;1068;52.460;13.528;2022-09-03T01:23:31;13.20;99.90
2124;DHT22;1068;52.460;13.528;2022-09-03T01:26:13;13.10;99.90
2124;DHT22;1068;52.460;13.528;2022-09-03T01:28:52;13.00;99.90
2124;DHT22;1068;52.460;13.528;2022-09-03T01:31:28;13.20;99.90
2124;DHT22;1068;52.460;13.528;2022-09-03T01:34:04;13.40;99.90
2124;DHT22;1068;52.460;13.528;2022-09-03T01:36:41;13.30;99.90
2124;DHT22;1068;52.460;13.528;2022-09-03T01:39:15;13.30;99.90
2124;DHT22;1068;52.460;13.528;2022-09-03T01:41:49;13.30;99.90
2124;DHT22;1068;52.460;13.528;2022-09-03T01:44:46;13.30;99.90
2124;DHT22;1068;52.460;13.528;2022-09-03T01:47:26;13.30;99.90
2124;DHT22;1068;52.460;13.528;2022-09-03T01:50:03;13.30;99.90
2124;DHT22;1068;52.460;13.528;2022-09-03T01:52:39;13.30;99.90
2124;DHT22;1068;52.460;13.528;2022-09-03T01:55:17;13.30;99.90
2124;DHT22;1068;52.460;13.528;2022-09-03T01:57:53;13.30;99.90
2124;DHT22;1068;52.460;13.528;2022-09-03T02:00:25;13.30;99.90
2124;DHT22;1068;52.460;13.528;2022-09-03T02:02:52;13.20;99.90
2124;DHT22;1068;52.460;13.528;2022-09-03T02:05:20;13.20;99.90
2124;DHT22;1068;52.460;13.528;2022-09-03T02:07:56;13.10;99.90
2124;DHT22;1068;52.460;13.528;2022-09-03T02:10:27;13.10;99.90
2124;DHT22;1068;52.460;13.528;2022-09-03T02:12:58;12.80;99.90
2124;DHT22;1068;52.460;13.528;2022-09-03T02:15:27;12.90;99.90
2124;DHT22;1068;52.460;13.528;2022-09-03T02:17:59;13.10;99.90
2124;DHT22;1068;52.460;13.528;2022-09-03T02:20:27;13.10;99.90
2124;DHT22;1068;52.460;13.528;2022-09-03T02:22:56;13.20;99.90
2124;DHT22;1068;52.460;13.528;2022-09-03T02:25:28;13.20;99.90
2124;DHT22;1068;52.460;13.528;2022-09-03T02:27:56;13.00;99.90
2124;DHT22;1068;52.460;13.528;2022-09-03T02:30:22;13.00;99.90
2124;DHT22;1068;52.460;13.528;2022-09-03T02:32:50;13.00;99.90
2124;DHT22;1068;52.460;13.528;2022-09-03T02:35:17;13.00;99.90
2124;DHT22;1068;52.460;13.528;2022-09-03T02:37:43;13.10;99.90
2124;DHT22;1068;52.460;13.528;2022-09-03T02:40:10;13.10;99.90
2124;DHT22;1068;52.460;13.528;2022-09-03T02:42:37;13.10;99.90
2124;DHT22;1068;52.460;13.528;2022-09-03T02:45:10;13.00;99.90
2124;DHT22;1068;52.460;13.528;2022-09-03T02:47:39;13.10;99.90
2124;DHT22;1068;52.460;13.528;2022-09-03T02:50:10;13.10;99.90
2124;DHT22;1068;52.460;13.528;2022-09-03T02:52:37;13.00;99.90
2124;DHT22;1068;52.460;13.528;2022-09-03T02:55:04;12.90;99.90
2124;DHT22;1068;52.460;13.528;2022-09-03T02:57:30;12.50;99.90
2124;DHT22;1068;52.460;13.528;2022-09-03T02:59:57;12.50;99.90
2124;DHT22;1068;52.460;13.528;2022-09-03T03:02:23;12.30;99.90
2124;DHT22;1068;52.460;13.528;2022-09-03T03:04:50;12.10;99.90
2124;DHT22;1068;52.460;13.528;2022-09-03T03:07:17;12.10;99.90
2124;DHT22;1068;52.460;13.528;2022-09-03T03:09:44;12.10;99.90
2124;DHT22;1068;52.460;13.528;2022-09-03T03:12:10;12.20;99.90
2124;DHT22;1068;52.460;13.528;2022-09-03T03:14:37;12.30;99.90
2124;DHT22;1068;52.460;13.528;2022-09-03T03:17:04;12.50;99.90
2124;DHT22;1068;52.460;13.528;2022-09-03T03:19:30;12.50;99.90
2124;DHT22;1068;52.460;13.528;2022-09-03T03:21:56;12.60;99.90
2124;DHT22;1068;52.460;13.528;2022-09-03T03:24:24;12.60;99.90
2124;DHT22;1068;52.460;13.528;2022-09-03T03:26:54;12.40;99.90
2124;DHT22;1068;52.460;13.528;2022-09-03T03:29:22;12.30;99.90
2124;DHT22;1068;52.460;13.528;2022-09-03T03:31:49;12.40;99.90
2124;DHT22;1068;52.460;13.528;2022-09-03T03:34:16;12.50;99.90
2124;DHT22;1068;52.460;13.528;2022-09-03T03:36:42;12.60;99.90
2124;DHT22;1068;52.460;13.528;2022-09-03T03:39:09;12.50;99.90
2124;DHT22;1068;52.460;13.528;2022-09-03T03:41:37;12.40;99.90
2124;DHT22;1068;52.460;13.528;2022-09-03T03:44:05;12.20;99.90
2124;DHT22;1068;52.460;13.528;2022-09-03T03:46:33;12.00;99.90
2124;DHT22;1068;52.460;13.528;2022-09-03T03:49:00;11.80;99.90
2124;DHT22;1068;52.460;13.528;2022-09-03T03:51:27;11.80;99.90
2124;DHT22;1068;52.460;13.528;2022-09-03T03:53:55;11.70;99.90
2124;DHT22;1068;52.460;13.528;2022-09-03T03:56:23;11.70;99.90
2124;DHT22;1068;52.460;13.528;2022-09-03T03:58:52;11.80;99.90
2124;DHT22;1068;52.460;13.528;2022-09-03T04:01:21;11.80;99.90
2124;DHT22;1068;52.460;13.528;2022-09-03T04:03:47;11.80;99.90
2124;DHT22;1068;52.460;13.528;2022-09-03T04:06:15;11.80;99.90
2124;DHT22;1068;52.460;13.528;2022-09-03T04:08:44;11.60;99.90
2124;DHT22;1068;52.460;13.528;2022-09-03T04:11:12;11.50;99.90
2124;DHT22;1068;52.460;13.528;2022-09-03T04:13:40;11.60;99.90
2124;DHT22;1068;52.460;13.528;2022-09-03T04:16:10;11.60;99.90
2124;DHT22;1068;52.460;13.528;2022-09-03T04:18:38;11.70;99.90
2124;DHT22;1068;52.460;13.528;2022-09-03T04:21:06;11.70;99.90
2124;DHT22;1068;52.460;13.528;2022-09-03T04:23:34;11.70;99.90
2124;DHT22;1068;52.460;13.528;2022-09-03T04:26:01;11.80;99.90
2124;DHT22;1068;52.460;13.528;2022-09-03T04:28:27;11.80;99.90
2124;DHT22;1068;52.460;13.528;2022-09-03T04:30:54;11.80;99.90
2124;DHT22;1068;52.460;13.528;2022-09-03T04:33:26;11.90;99.90
2124;DHT22;1068;52.460;13.528;2022-09-03T04:36:01;11.80;99.90
2124;DHT22;1068;52.460;13.528;2022-09-03T04:38:28;11.80;99.90
2124;DHT22;1068;52.460;13.528;2022-09-03T04:40:56;11.60;99.90
2124;DHT22;1068;52.460;13.528;2022-09-03T04:43:23;11.50;99.90
2124;DHT22;1068;52.460;13.528;2022-09-03T04:45:50;11.60;99.90
2124;DHT22;1068;52.460;13.528;2022-09-03T04:48:16;11.80;99.90
2124;DHT22;1068;52.460;13.528;2022-09-03T04:50:44;11.80;99.90
2124;DHT22;1068;52.460;13.528;2022-09-03T04:53:11;11.70;99.90
2124;DHT22;1068;52.460;13.528;2022-09-03T04:55:37;11.60;99.90
2124;DHT22;1068;52.460;13.528;2022-09-03T04:58:04;11.50;99.90
2124;DHT22;1068;52.460;13.528;2022-09-03T05:00:32;11.50;99.90
2124;DHT22;1068;52.460;13.528;2022-09-03T05:02:59;11.50;99.90
2124;DHT22;1068;52.460;13.528;2022-09-03T05:05:25;11.50;99.90
2124;DHT22;1068;52.460;13.528;2022-09-03T05:07:56;11.50;99.90
2124;DHT22;1068;52.460;13.528;2022-09-03T05:10:23;11.60;99.90
2124;DHT22;1068;52.460;13.528;2022-09-03T05:12:57;11.70;99.90
2124;DHT22;1068;52.460;13.528;2022-09-03T05:15:24;11.70;99.90
2124;DHT22;1068;52.460;13.528;2022-09-03T05:17:55;11.60;99.90
2124;DHT22;1068;52.460;13.528;2022-09-03T05:20:21;11.50;99.90
2124;DHT22;1068;52.460;13.528;2022-09-03T05:22:49;11.70;99.90
2124;DHT22;1068;52.460;13.528;2022-09-03T05:25:17;11.60;99.90
2124;DHT22;1068;52.460;13.528;2022-09-03T05:27:43;11.70;99.90
2124;DHT22;1068;52.460;13.528;2022-09-03T05:30:11;11.60;99.90
2124;DHT22;1068;52.460;13.528;2022-09-03T05:32:37;11.50;99.90
2124;DHT22;1068;52.460;13.528;2022-09-03T05:35:05;11.70;99.90
2124;DHT22;1068;52.460;13.528;2022-09-03T05:37:32;11.70;99.90
2124;DHT22;1068;52.460;13.528;2022-09-03T05:39:58;11.60;99.90
2124;DHT22;1068;52.460;13.528;2022-09-03T05:42:26;11.70;99.90
2124;DHT22;1068;52.460;13.528;2022-09-03T05:44:53;11.80;99.90
2124;DHT22;1068;52.460;13.528;2022-09-03T05:47:19;11.70;99.90
2124;DHT22;1068;52.460;13.528;2022-09-03T05:49:45;11.60;99.90
2124;DHT22;1068;52.460;13.528;2022-09-03T05:52:12;11.80;99.90
2124;DHT22;1068;52.460;13.528;2022-09-03T05:54:38;11.70;99.90
2124;DHT22;1068;52.460;13.528;2022-09-03T05:57:05;11.70;99.90
2124;DHT22;1068;52.460;13.528;2022-09-03T05:59:33;11.90;99.90
2124;DHT22;1068;52.460;13.528;2022-09-03T06:01:59;11.90;99.90
2124;DHT22;1068;52.460;13.528;2022-09-03T06:04:26;12.00;99.90
2124;DHT22;1068;52.460;13.528;2022-09-03T06:06:52;12.10;99.90
2124;DHT22;1068;52.460;13.528;2022-09-03T06:09:20;12.20;99.90
2124;DHT22;1068;52.460;13.528;2022-09-03T06:11:47;12.30;99.90
2124;DHT22;1068;52.460;13.528;2022-09-03T06:14:15;12.30;99.90
2124;DHT22;1068;52.460;13.528;2022-09-03T06:16:44;12.30;99.90
2124;DHT22;1068;52.460;13.528;2022-09-03T06:19:13;12.50;99.90
2124;DHT22;1068;52.460;13.528;2022-09-03T06:21:41;12.50;99.90
2124;DHT22;1068;52.460;13.528;2022-09-03T06:24:09;12.70;99.90
2124;DHT22;1068;52.460;13.528;2022-09-03T06:26:36;12.70;99.90
2124;DHT22;1068;52.460;13.528;2022-09-03T06:29:03;12.70;99.90
2124;DHT22;1068;52.460;13.528;2022-09-03T06:31:29;12.80;99.90
2124;DHT22;1068;52.460;13.528;2022-09-03T06:33:57;12.70;99.90
2124;DHT22;1068;52.460;13.528;2022-09-03T06:36:24;12.80;99.90
2124;DHT22;1068;52.460;13.528;2022-09-03T06:38:53;12.90;99.90
2124;DHT22;1068;52.460;13.528;2022-09-03T06:41:21;13.10;99.90
2124;DHT22;1068;52.460;13.528;2022-09-03T06:43:50;13.10;99.90
2124;DHT22;1068;52.460;13.528;2022-09-03T06:46:18;13.10;99.90
2124;DHT22;1068;52.460;13.528;2022-09-03T06:48:46;13.30;99.90
2124;DHT22;1068;52.460;13.528;2022-09-03T06:51:15;13.40;99.90
2124;DHT22;1068;52.460;13.528;2022-09-03T06:53:43;13.50;99.90
2124;DHT22;1068;52.460;13.528;2022-09-03T06:56:11;13.60;99.90
2124;DHT22;1068;52.460;13.528;2022-09-03T06:58:40;13.90;99.90
2124;DHT22;1068;52.460;13.528;2022-09-03T07:01:10;14.00;99.90
2124;DHT22;1068;52.460;13.528;2022-09-03T07:03:38;14.10;99.90
2124;DHT22;1068;52.460;13.528;2022-09-03T07:06:06;14.30;99.90
2124;DHT22;1068;52.460;13.528;2022-09-03T07:08:35;14.30;99.90
2124;DHT22;1068;52.460;13.528;2022-09-03T07:11:03;14.40;99.90
2124;DHT22;1068;52.460;13.528;2022-09-03T07:13:30;14.50;99.90
2124;DHT22;1068;52.460;13.528;2022-09-03T07:16:00;14.60;99.90
2124;DHT22;1068;52.460;13.528;2022-09-03T07:18:27;14.70;99.90
2124;DHT22;1068;52.460;13.528;2022-09-03T07:20:57;14.90;99.90
2124;DHT22;1068;52.460;13.528;2022-09-03T07:23:24;15.10;99.90
2124;DHT22;1068;52.460;13.528;2022-09-03T07:25:53;15.20;99.90
2124;DHT22;1068;52.460;13.528;2022-09-03T07:28:20;15.20;99.90
2124;DHT22;1068;52.460;13.528;2022-09-03T07:30:47;15.40;99.90
2124;DHT22;1068;52.460;13.528;2022-09-03T07:33:13;15.80;99.90
2124;DHT22;1068;52.460;13.528;2022-09-03T07:35:40;15.80;99.90
2124;DHT22;1068;52.460;13.528;2022-09-03T07:38:06;16.00;99.90
2124;DHT22;1068;52.460;13.528;2022-09-03T07:40:34;15.80;99.90
2124;DHT22;1068;52.460;13.528;2022-09-03T07:43:02;16.00;99.90
2124;DHT22;1068;52.460;13.528;2022-09-03T07:45:28;16.00;99.90
2124;DHT22;1068;52.460;13.528;2022-09-03T07:47:55;16.10;99.90
2124;DHT22;1068;52.460;13.528;2022-09-03T07:50:21;16.10;99.90
2124;DHT22;1068;52.460;13.528;2022-09-03T07:52:48;16.30;99.90
2124;DHT22;1068;52.460;13.528;2022-09-03T07:55:14;16.40;99.90
2124;DHT22;1068;52.460;13.528;2022-09-03T07:57:41;16.50;99.90
2124;DHT22;1068;52.460;13.528;2022-09-03T08:00:10;16.40;99.90
2124;DHT22;1068;52.460;13.528;2022-09-03T08:02:37;16.50;99.90
2124;DHT22;1068;52.460;13.528;2022-09-03T08:05:05;17.00;99.90
2124;DHT22;1068;52.460;13.528;2022-09-03T08:07:31;17.00;99.90
2124;DHT22;1068;52.460;13.528;2022-09-03T08:09:58;16.90;99.90
2124;DHT22;1068;52.460;13.528;2022-09-03T08:12:25;16.70;99.90
2124;DHT22;1068;52.460;13.528;2022-09-03T08:14:52;17.00;99.90
2124;DHT22;1068;52.460;13.528;2022-09-03T08:17:20;17.00;99.90
2124;DHT22;1068;52.460;13.528;2022-09-03T08:19:46;17.20;99.90
2124;DHT22;1068;52.460;13.528;2022-09-03T08:22:13;17.20;99.90
2124;DHT22;1068;52.460;13.528;2022-09-03T08:24:39;17.20;99.90
2124;DHT22;1068;52.460;13.528;2022-09-03T08:27:07;17.00;99.90
2124;DHT22;1068;52.460;13.528;2022-09-03T08:29:33;17.00;99.90
2124;DHT22;1068;52.460;13.528;2022-09-03T08:32:00;17.20;99.90
2124;DHT22;1068;52.460;13.528;2022-09-03T08:34:27;17.50;99.90
2124;DHT22;1068;52.460;13.528;2022-09-03T08:36:54;17.60;99.90
2124;DHT22;1068;52.460;13.528;2022-09-03T08:39:20;17.70;99.90
2124;DHT22;1068;52.460;13.528;2022-09-03T08:42:11;17.90;99.90
2124;DHT22;1068;52.460;13.528;2022-09-03T08:44:43;17.90;99.90
2124;DHT22;1068;52.460;13.528;2022-09-03T08:47:15;18.10;99.90
2124;DHT22;1068;52.460;13.528;2022-09-03T08:49:46;18.30;99.90
2124;DHT22;1068;52.460;13.528;2022-09-03T08:52:23;18.40;99.90
2124;DHT22;1068;52.460;13.528;2022-09-03T08:54:51;18.40;99.90
2124;DHT22;1068;52.460;13.528;2022-09-03T08:57:21;18.50;99.90
2124;DHT22;1068;52.460;13.528;2022-09-03T08:59:52;18.60;99.90
2124;DHT22;1068;52.460;13.528;2022-09-03T09:02:25;18.60;99.90
2124;DHT22;1068;52.460;13.528;2022-09-03T09:04:59;18.60;99.90
2124;DHT22;1068;52.460;13.528;2022-09-03T09:07:33;18.70;99.90
2124;DHT22;1068;52.460;13.528;2022-09-03T09:10:07;19.10;99.90
2124;DHT22;1068;52.460;13.528;2022-09-03T09:12:40;19.10;99.90
2124;DHT22;1068;52.460;13.528;2022-09-03T09:15:12;19.20;99.90
2124;DHT22;1068;52.460;13.528;2022-09-03T09:17:48;19.10;99.90
2124;DHT22;1068;52.460;13.528;2022-09-03T09:20:25;19.10;99.90
2124;DHT22;1068;52.460;13.528;2022-09-03T09:22:56;19.10;99.90
2124;DHT22;1068;52.460;13.528;2022-09-03T09:25:25;19.10;99.90
2124;DHT22;1068;52.460;13.528;2022-09-03T09:27:56;19.20;99.90
2124;DHT22;1068;52.460;13.528;2022-09-03T09:30:24;19.40;99.90
2124;DHT22;1068;52.460;13.528;2022-09-03T09:32:51;19.40;99.90
2124;DHT22;1068;52.460;13.528;2022-09-03T09:35:19;19.40;99.90
2124;DHT22;1068;52.460;13.528;2022-09-03T09:37:46;19.50;99.90
2124;DHT22;1068;52.460;13.528;2022-09-03T09:40:26;19.50;99.90
2124;DHT22;1068;52.460;13.528;2022-09-03T09:43:07;19.50;99.90
2124;DHT22;1068;52.460;13.528;2022-09-03T09:45:35;19.60;99.90
2124;DHT22;1068;52.460;13.528;2022-09-03T09:48:09;19.70;99.90
2124;DHT22;1068;52.460;13.528;2022-09-03T09:50:38;20.00;99.90
2124;DHT22;1068;52.460;13.528;2022-09-03T09:53:07;20.20;99.90
2124;DHT22;1068;52.460;13.528;2022-09-03T09:55:51;20.40;99.90
2124;DHT22;1068;52.460;13.528;2022-09-03T09:58:22;20.40;99.90
2124;DHT22;1068;52.460;13.528;2022-09-03T10:01:01;20.50;99.90
2124;DHT22;1068;52.460;13.528;2022-09-03T10:03:31;20.80;99.90
2124;DHT22;1068;52.460;13.528;2022-09-03T10:06:08;20.50;99.90
2124;DHT22;1068;52.460;13.528;2022-09-03T10:09:03;20.50;99.90
2124;DHT22;1068;52.460;13.528;2022-09-03T10:11:30;20.30;99.90
2124;DHT22;1068;52.460;13.528;2022-09-03T10:13:58;20.40;99.90
2124;DHT22;1068;52.460;13.528;2022-09-03T10:16:29;20.50;99.90
2124;DHT22;1068;52.460;13.528;2022-09-03T10:19:05;20.60;99.90
2124;DHT22;1068;52.460;13.528;2022-09-03T10:21:42;20.70;99.90
2124;DHT22;1068;52.460;13.528;2022-09-03T10:24:24;20.50;99.90
2124;DHT22;1068;52.460;13.528;2022-09-03T10:26:52;20.30;99.90
2124;DHT22;1068;52.460;13.528;2022-09-03T10:29:22;20.00;99.90
2124;DHT22;1068;52.460;13.528;2022-09-03T10:31:59;20.20;99.90
2124;DHT22;1068;52.460;13.528;2022-09-03T10:34:32;20.50;99.90
2124;DHT22;1068;52.460;13.528;2022-09-03T10:37:13;20.60;99.90
2124;DHT22;1068;52.460;13.528;2022-09-03T10:39:55;20.50;99.90
2124;DHT22;1068;52.460;13.528;2022-09-03T10:42:38;20.50;99.90
2124;DHT22;1068;52.460;13.528;2022-09-03T10:45:18;20.50;99.90
2124;DHT22;1068;52.460;13.528;2022-09-03T10:50:45;20.60;99.90
2124;DHT22;1068;52.460;13.528;2022-09-03T10:53:24;20.50;99.90
2124;DHT22;1068;52.460;13.528;2022-09-03T10:55:57;20.50;99.90
2124;DHT22;1068;52.460;13.528;2022-09-03T10:58:35;20.50;99.90
2124;DHT22;1068;52.460;13.528;2022-09-03T11:01:09;20.40;99.90
2124;DHT22;1068;52.460;13.528;2022-09-03T11:03:45;20.30;99.90
2124;DHT22;1068;52.460;13.528;2022-09-03T11:06:17;20.30;99.80
2124;DHT22;1068;52.460;13.528;2022-09-03T11:08:52;20.40;99.40
2124;DHT22;1068;52.460;13.528;2022-09-03T11:11:23;20.70;99.80
2124;DHT22;1068;52.460;13.528;2022-09-03T11:13:55;21.30;99.40
2124;DHT22;1068;52.460;13.528;2022-09-03T11:16:27;21.40;96.70
2124;DHT22;1068;52.460;13.528;2022-09-03T11:18:59;21.80;97.60
2124;DHT22;1068;52.460;13.528;2022-09-03T11:21:27;21.90;96.60
2124;DHT22;1068;52.460;13.528;2022-09-03T11:24:04;21.80;96.50
2124;DHT22;1068;52.460;13.528;2022-09-03T11:26:33;21.90;95.90
2124;DHT22;1068;52.460;13.528;2022-09-03T11:29:05;21.80;96.20
2124;DHT22;1068;52.460;13.528;2022-09-03T11:31:45;22.10;97.00
2124;DHT22;1068;52.460;13.528;2022-09-03T11:34:26;22.10;96.30
2124;DHT22;1068;52.460;13.528;2022-09-03T11:37:04;22.20;95.90
2124;DHT22;1068;52.460;13.528;2022-09-03T11:39:35;22.20;96.20
2124;DHT22;1068;52.460;13.528;2022-09-03T11:42:09;22.00;96.70
2124;DHT22;1068;52.460;13.528;2022-09-03T11:44:38;21.90;96.40
2124;DHT22;1068;52.460;13.528;2022-09-03T11:47:14;21.60;96.20
2124;DHT22;1068;52.460;13.528;2022-09-03T11:50:04;21.50;96.00
2124;DHT22;1068;52.460;13.528;2022-09-03T11:52:31;21.40;95.20
2124;DHT22;1068;52.460;13.528;2022-09-03T11:55:05;21.20;95.60
2124;DHT22;1068;52.460;13.528;2022-09-03T11:57:32;21.30;94.20
2124;DHT22;1068;52.460;13.528;2022-09-03T12:00:08;21.20;94.90
2124;DHT22;1068;52.460;13.528;2022-09-03T12:02:42;21.10;94.10
2124;DHT22;1068;52.460;13.528;2022-09-03T12:05:21;21.00;94.20
2124;DHT22;1068;52.460;13.528;2022-09-03T12:08:10;21.10;94.50
2124;DHT22;1068;52.460;13.528;2022-09-03T12:10:48;21.40;94.20
2124;DHT22;1068;52.460;13.528;2022-09-03T12:13:31;21.70;94.40
2124;DHT22;1068;52.460;13.528;2022-09-03T12:16:20;21.90;93.50
2124;DHT22;1068;52.460;13.528;2022-09-03T12:18:53;21.80;94.20
2124;DHT22;1068;52.460;13.528;2022-09-03T12:21:24;21.40;93.30
2124;DHT22;1068;52.460;13.528;2022-09-03T12:23:52;21.30;94.10
2124;DHT22;1068;52.460;13.528;2022-09-03T12:26:20;21.40;93.70
2124;DHT22;1068;52.460;13.528;2022-09-03T12:28:50;21.30;93.80
2124;DHT22;1068;52.460;13.528;2022-09-03T12:31:20;21.40;93.80
2124;DHT22;1068;52.460;13.528;2022-09-03T12:33:49;21.30;94.30
2124;DHT22;1068;52.460;13.528;2022-09-03T12:36:18;21.30;94.00
2124;DHT22;1068;52.460;13.528;2022-09-03T12:38:46;21.20;94.70
2124;DHT22;1068;52.460;13.528;2022-09-03T12:41:20;21.30;93.50
2124;DHT22;1068;52.460;13.528;2022-09-03T12:43:50;21.60;93.50
2124;DHT22;1068;52.460;13.528;2022-09-03T12:46:17;21.70;93.00
2124;DHT22;1068;52.460;13.528;2022-09-03T12:49:00;21.60;92.80
2124;DHT22;1068;52.460;13.528;2022-09-03T12:51:33;21.60;93.80
2124;DHT22;1068;52.460;13.528;2022-09-03T12:54:04;21.50;93.00
2124;DHT22;1068;52.460;13.528;2022-09-03T12:56:34;21.30;92.90
2124;DHT22;1068;52.460;13.528;2022-09-03T12:59:04;21.20;93.70
2124;DHT22;1068;52.460;13.528;2022-09-03T13:01:35;21.20;93.40
2124;DHT22;1068;52.460;13.528;2022-09-03T13:04:08;21.20;93.30
2124;DHT22;1068;52.460;13.528;2022-09-03T13:06:45;21.10;93.20
2124;DHT22;1068;52.460;13.528;2022-09-03T13:09:19;21.00;93.50
2124;DHT22;1068;52.460;13.528;2022-09-03T13:11:46;21.00;93.70
2124;DHT22;1068;52.460;13.528;2022-09-03T13:14:13;21.20;94.00
2124;DHT22;1068;52.460;13.528;2022-09-03T13:19:54;21.50;93.90
2124;DHT22;1068;52.460;13.528;2022-09-03T13:22:31;21.80;93.20
2124;DHT22;1068;52.460;13.528;2022-09-03T13:25:12;21.80;92.10
2124;DHT22;1068;52.460;13.528;2022-09-03T13:27:44;21.70;92.40
2124;DHT22;1068;52.460;13.528;2022-09-03T13:30:19;21.60;93.10
2124;DHT22;1068;52.460;13.528;2022-09-03T13:32:52;21.90;92.60
2124;DHT22;1068;52.460;13.528;2022-09-03T13:35:27;22.10;92.80
2124;DHT22;1068;52.460;13.528;2022-09-03T13:37:57;21.90;92.10
2124;DHT22;1068;52.460;13.528;2022-09-03T13:40:34;21.80;92.30
2124;DHT22;1068;52.460;13.528;2022-09-03T13:43:07;21.90;91.80
2124;DHT22;1068;52.460;13.528;2022-09-03T13:45:45;21.90;92.20
2124;DHT22;1068;52.460;13.528;2022-09-03T13:48:18;21.60;92.00
2124;DHT22;1068;52.460;13.528;2022-09-03T13:51:10;21.60;91.90
2124;DHT22;1068;52.460;13.528;2022-09-03T13:53:46;21.40;92.00
2124;DHT22;1068;52.460;13.528;2022-09-03T13:56:33;21.30;92.40
2124;DHT22;1068;52.460;13.528;2022-09-03T13:59:05;21.40;92.60
2124;DHT22;1068;52.460;13.528;2022-09-03T14:01:42;21.20;92.80
2124;DHT22;1068;52.460;13.528;2022-09-03T14:04:18;21.40;92.50
2124;DHT22;1068;52.460;13.528;2022-09-03T14:06:55;21.50;91.90
2124;DHT22;1068;52.460;13.528;2022-09-03T14:09:29;21.60;92.40
2124;DHT22;1068;52.460;13.528;2022-09-03T14:12:04;21.90;91.60
2124;DHT22;1068;52.460;13.528;2022-09-03T14:14:44;21.90;91.60
2124;DHT22;1068;52.460;13.528;2022-09-03T14:17:14;21.80;91.10
2124;DHT22;1068;52.460;13.528;2022-09-03T14:19:45;21.70;91.20
2124;DHT22;1068;52.460;13.528;2022-09-03T14:22:16;21.50;91.30
2124;DHT22;1068;52.460;13.528;2022-09-03T14:24:47;21.40;91.80
2124;DHT22;1068;52.460;13.528;2022-09-03T14:27:23;21.60;92.10
2124;DHT22;1068;52.460;13.528;2022-09-03T14:29:53;21.60;92.30
2124;DHT22;1068;52.460;13.528;2022-09-03T14:32:28;21.50;91.70
2124;DHT22;1068;52.460;13.528;2022-09-03T14:35:14;21.60;92.60
2124;DHT22;1068;52.460;13.528;2022-09-03T14:37:54;21.70;92.10
2124;DHT22;1068;52.460;13.528;2022-09-03T14:40:29;21.50;92.40
2124;DHT22;1068;52.460;13.528;2022-09-03T14:43:14;21.70;92.00
2124;DHT22;1068;52.460;13.528;2022-09-03T14:45:55;21.60;91.90
2124;DHT22;1068;52.460;13.528;2022-09-03T14:48:34;21.50;92.10
2124;DHT22;1068;52.460;13.528;2022-09-03T14:51:16;21.60;92.10
2124;DHT22;1068;52.460;13.528;2022-09-03T14:54:29;21.60;92.50
2124;DHT22;1068;52.460;13.528;2022-09-03T14:57:13;21.60;92.20
2124;DHT22;1068;52.460;13.528;2022-09-03T14:59:57;21.60;92.50
2124;DHT22;1068;52.460;13.528;2022-09-03T15:02:45;21.60;92.50
2124;DHT22;1068;52.460;13.528;2022-09-03T15:05:35;21.60;92.20
2124;DHT22;1068;52.460;13.528;2022-09-03T15:08:10;21.50;92.20
2124;DHT22;1068;52.460;13.528;2022-09-03T15:10:44;21.50;93.00
2124;DHT22;1068;52.460;13.528;2022-09-03T15:13:16;21.80;92.40
2124;DHT22;1068;52.460;13.528;2022-09-03T15:15:53;22.00;92.40
2124;DHT22;1068;52.460;13.528;2022-09-03T15:18:28;21.90;92.20
2124;DHT22;1068;52.460;13.528;2022-09-03T15:21:00;22.20;92.50
2124;DHT22;1068;52.460;13.528;2022-09-03T15:23:46;22.10;91.60
2124;DHT22;1068;52.460;13.528;2022-09-03T15:26:50;22.20;92.30
2124;DHT22;1068;52.460;13.528;2022-09-03T15:29:29;22.30;91.70
2124;DHT22;1068;52.460;13.528;2022-09-03T15:32:09;22.30;91.70
2124;DHT22;1068;52.460;13.528;2022-09-03T15:35:02;22.20;91.50
2124;DHT22;1068;52.460;13.528;2022-09-03T15:37:35;22.10;91.70
2124;DHT22;1068;52.460;13.528;2022-09-03T15:40:06;22.10;92.00
2124;DHT22;1068;52.460;13.528;2022-09-03T15:42:35;22.00;91.40
2124;DHT22;1068;52.460;13.528;2022-09-03T15:45:06;21.90;91.30
2124;DHT22;1068;52.460;13.528;2022-09-03T15:47:39;21.60;91.80
2124;DHT22;1068;52.460;13.528;2022-09-03T15:50:15;21.50;92.30
2124;DHT22;1068;52.460;13.528;2022-09-03T15:52:54;21.40;92.70
2124;DHT22;1068;52.460;13.528;2022-09-03T15:55:29;21.60;93.00
2124;DHT22;1068;52.460;13.528;2022-09-03T15:57:59;21.90;92.90
2124;DHT22;1068;52.460;13.528;2022-09-03T16:00:40;21.90;93.00
2124;DHT22;1068;52.460;13.528;2022-09-03T16:03:21;22.00;92.70
2124;DHT22;1068;52.460;13.528;2022-09-03T16:06:01;21.80;91.90
2124;DHT22;1068;52.460;13.528;2022-09-03T16:08:36;21.90;92.60
2124;DHT22;1068;52.460;13.528;2022-09-03T16:11:08;21.90;92.10
2124;DHT22;1068;52.460;13.528;2022-09-03T16:13:53;21.80;91.90
2124;DHT22;1068;52.460;13.528;2022-09-03T16:16:23;21.50;92.60
2124;DHT22;1068;52.460;13.528;2022-09-03T16:18:58;21.40;92.80
2124;DHT22;1068;52.460;13.528;2022-09-03T16:21:31;21.30;93.20